sensor_id;sensor_type;location;lat;lon;timestamp;P1;durP1;ratioP1;P2;durP2;ratioP2
3767;SDS011;1899;49.966;7.106;2022-07-12T04:00:23;21.40;;;17.73;;
3767;SDS011;1899;49.966;7.106;2022-07-12T04:02:48;22.83;;;18.57;;
3767;SDS011;1899;49.966;7.106;2022-07-12T04:05:13;22.70;;;18.80;;
3767;SDS011;1899;49.966;7.106;2022-07-12T04:07:39;20.83;;;17.50;;
3767;SDS011;1899;49.966;7.106;2022-07-12T04:10:05;25.03;;;20.20;;
3767;SDS011;1899;49.966;7.106;2022-07-12T04:12:31;19.90;;;17.53;;
3767;SDS011;1899;49.966;7.106;2022-07-12T04:14:56;20.67;;;17.30;;
3767;SDS011;1899;49.966;7.106;2022-07-12T04:17:21;22.27;;;17.77;;
3767;SDS011;1899;49.966;7.106;2022-07-12T04:19:46;21.43;;;18.27;;
3767;SDS011;1899;49.966;7.106;2022-07-12T04:22:12;19.17;;;17.00;;
3767;SDS011;1899;49.966;7.106;2022-07-12T04:24:37;21.27;;;17.67;;
3767;SDS011;1899;49.966;7.106;2022-07-12T04:27:02;21.67;;;18.10;;
3767;SDS011;1899;49.966;7.106;2022-07-12T04:29:27;21.90;;;17.27;;
3767;SDS011;1899;49.966;7.106;2022-07-12T04:31:53;19.50;;;17.20;;
3767;SDS011;1899;49.966;7.106;2022-07-12T04:34:18;26.60;;;20.23;;
3767;SDS011;1899;49.966;7.106;2022-07-12T04:36:46;27.97;;;19.63;;
3767;SDS011;1899;49.966;7.106;2022-07-12T04:39:12;24.23;;;17.23;;
3767;SDS011;1899;49.966;7.106;2022-07-12T04:41:38;19.20;;;16.90;;
3767;SDS011;1899;49.966;7.106;2022-07-12T04:44:04;19.80;;;17.70;;
3767;SDS011;1899;49.966;7.106;2022-07-12T04:46:29;20.63;;;16.73;;
3767;SDS011;1899;49.966;7.106;2022-07-12T04:48:54;20.20;;;18.00;;
3767;SDS011;1899;49.966;7.106;2022-07-12T04:51:20;22.00;;;17.40;;
3767;SDS011;1899;49.966;7.106;2022-07-12T04:53:45;20.70;;;18.00;;
3767;SDS011;1899;49.966;7.106;2022-07-12T04:56:10;22.00;;;18.20;;
3767;SDS011;1899;49.966;7.106;2022-07-12T04:58:36;20.00;;;17.43;;
3767;SDS011;1899;49.966;7.106;2022-07-12T05:01:01;18.77;;;16.40;;
3767;SDS011;1899;49.966;7.106;2022-07-12T05:03:26;20.10;;;16.87;;
3767;SDS011;1899;49.966;7.106;2022-07-12T05:05:54;18.07;;;16.10;;
3767;SDS011;1899;49.966;7.106;2022-07-12T05:08:20;22.70;;;17.70;;
3767;SDS011;1899;49.966;7.106;2022-07-12T05:10:45;18.13;;;16.23;;
3767;SDS011;1899;49.966;7.106;2022-07-12T05:13:10;23.70;;;17.83;;
3767;SDS011;1899;49.966;7.106;2022-07-12T05:15:35;19.00;;;16.17;;
3767;SDS011;1899;49.966;7.106;2022-07-12T05:18:01;20.50;;;17.97;;
3767;SDS011;1899;49.966;7.106;2022-07-12T05:20:26;19.90;;;17.57;;
3767;SDS011;1899;49.966;7.106;2022-07-12T05:22:51;21.77;;;18.20;;
3767;SDS011;1899;49.966;7.106;2022-07-12T05:25:16;22.13;;;19.17;;
3767;SDS011;1899;49.966;7.106;2022-07-12T05:27:42;27.30;;;19.53;;
3767;SDS011;1899;49.966;7.106;2022-07-12T05:30:07;22.77;;;18.33;;
3767;SDS011;1899;49.966;7.106;2022-07-12T05:32:33;21.97;;;19.07;;
3767;SDS011;1899;49.966;7.106;2022-07-12T05:34:58;24.73;;;20.10;;
3767;SDS011;1899;49.966;7.106;2022-07-12T05:37:23;25.80;;;18.90;;
3767;SDS011;1899;49.966;7.106;2022-07-12T05:39:50;25.97;;;18.77;;
3767;SDS011;1899;49.966;7.106;2022-07-12T05:42:15;22.07;;;18.90;;
3767;SDS011;1899;49.966;7.106;2022-07-12T05:44:40;24.80;;;20.93;;
3767;SDS011;1899;49.966;7.106;2022-07-12T05:47:06;23.20;;;19.10;;
3767;SDS011;1899;49.966;7.106;2022-07-12T05:49:31;20.90;;;18.70;;
3767;SDS011;1899;49.966;7.106;2022-07-12T05:51:57;22.77;;;18.60;;
3767;SDS011;1899;49.966;7.106;2022-07-12T05:54:40;23.37;;;19.20;;
3767;SDS011;1899;49.966;7.106;2022-07-12T05:57:06;18.73;;;16.30;;
3767;SDS011;1899;49.966;7.106;2022-07-12T05:59:31;22.07;;;17.83;;
3767;SDS011;1899;49.966;7.106;2022-07-12T06:01:56;23.63;;;18.93;;
3767;SDS011;1899;49.966;7.106;2022-07-12T06:04:21;21.37;;;18.93;;
3767;SDS011;1899;49.966;7.106;2022-07-12T06:06:47;20.90;;;17.90;;
3767;SDS011;1899;49.966;7.106;2022-07-12T06:09:12;19.77;;;17.60;;
3767;SDS011;1899;49.966;7.106;2022-07-12T06:11:38;22.60;;;19.37;;
3767;SDS011;1899;49.966;7.106;2022-07-12T06:14:03;22.47;;;19.10;;
3767;SDS011;1899;49.966;7.106;2022-07-12T06:16:28;20.77;;;18.50;;
3767;SDS011;1899;49.966;7.106;2022-07-12T06:18:53;21.87;;;18.90;;
3767;SDS011;1899;49.966;7.106;2022-07-12T06:21:18;23.27;;;20.13;;
3767;SDS011;1899;49.966;7.106;2022-07-12T06:23:44;27.30;;;20.43;;
3767;SDS011;1899;49.966;7.106;2022-07-12T06:26:09;21.80;;;17.97;;
3767;SDS011;1899;49.966;7.106;2022-07-12T06:28:34;26.00;;;20.70;;
3767;SDS011;1899;49.966;7.106;2022-07-12T06:31:00;26.27;;;19.43;;
3767;SDS011;1899;49.966;7.106;2022-07-12T06:33:26;20.30;;;16.67;;
3767;SDS011;1899;49.966;7.106;2022-07-12T06:35:51;19.20;;;17.20;;
3767;SDS011;1899;49.966;7.106;2022-07-12T06:38:16;22.20;;;18.97;;
3767;SDS011;1899;49.966;7.106;2022-07-12T06:40:41;21.43;;;17.73;;
3767;SDS011;1899;49.966;7.106;2022-07-12T06:43:10;23.60;;;19.50;;
3767;SDS011;1899;49.966;7.106;2022-07-12T06:45:35;20.40;;;18.00;;
3767;SDS011;1899;49.966;7.106;2022-07-12T06:48:01;23.93;;;19.53;;
3767;SDS011;1899;49.966;7.106;2022-07-12T06:50:26;21.53;;;18.60;;
3767;SDS011;1899;49.966;7.106;2022-07-12T06:52:51;23.13;;;18.60;;
3767;SDS011;1899;49.966;7.106;2022-07-12T06:55:16;21.03;;;18.83;;
3767;SDS011;1899;49.966;7.106;2022-07-12T06:57:42;19.47;;;17.40;;
3767;SDS011;1899;49.966;7.106;2022-07-12T07:00:07;19.93;;;17.43;;
3767;SDS011;1899;49.966;7.106;2022-07-12T07:02:32;23.47;;;18.33;;
3767;SDS011;1899;49.966;7.106;2022-07-12T07:04:58;23.40;;;18.20;;
3767;SDS011;1899;49.966;7.106;2022-07-12T07:07:23;26.60;;;19.03;;
3767;SDS011;1899;49.966;7.106;2022-07-12T07:09:48;20.80;;;17.77;;
3767;SDS011;1899;49.966;7.106;2022-07-12T07:12:13;19.90;;;16.97;;
3767;SDS011;1899;49.966;7.106;2022-07-12T07:14:39;21.00;;;18.27;;
3767;SDS011;1899;49.966;7.106;2022-07-12T07:17:04;21.10;;;17.70;;
3767;SDS011;1899;49.966;7.106;2022-07-12T07:19:29;19.23;;;17.27;;
3767;SDS011;1899;49.966;7.106;2022-07-12T07:21:55;22.07;;;18.80;;
3767;SDS011;1899;49.966;7.106;2022-07-12T07:24:20;21.23;;;19.00;;
3767;SDS011;1899;49.966;7.106;2022-07-12T07:26:46;19.47;;;17.37;;
3767;SDS011;1899;49.966;7.106;2022-07-12T07:29:11;18.50;;;16.50;;
3767;SDS011;1899;49.966;7.106;2022-07-12T07:31:55;19.07;;;17.10;;
3767;SDS011;1899;49.966;7.106;2022-07-12T07:34:21;19.67;;;17.47;;
3767;SDS011;1899;49.966;7.106;2022-07-12T07:36:48;18.80;;;16.80;;
3767;SDS011;1899;49.966;7.106;2022-07-12T07:39:13;21.70;;;18.00;;
3767;SDS011;1899;49.966;7.106;2022-07-12T07:41:39;18.27;;;16.23;;
3767;SDS011;1899;49.966;7.106;2022-07-12T07:44:04;17.70;;;15.80;;
3767;SDS011;1899;49.966;7.106;2022-07-12T07:46:30;19.40;;;15.57;;
3767;SDS011;1899;49.966;7.106;2022-07-12T07:48:55;16.80;;;15.10;;
3767;SDS011;1899;49.966;7.106;2022-07-12T07:51:20;14.30;;;12.97;;
3767;SDS011;1899;49.966;7.106;2022-07-12T07:53:46;14.57;;;13.03;;
3767;SDS011;1899;49.966;7.106;2022-07-12T07:56:11;14.83;;;13.23;;
3767;SDS011;1899;49.966;7.106;2022-07-12T07:58:36;13.73;;;12.00;;
3767;SDS011;1899;49.966;7.106;2022-07-12T08:01:02;11.40;;;9.80;;
3767;SDS011;1899;49.966;7.106;2022-07-12T08:03:27;13.17;;;10.67;;
3767;SDS011;1899;49.966;7.106;2022-07-12T08:05:52;10.43;;;9.40;;
3767;SDS011;1899;49.966;7.106;2022-07-12T08:08:17;9.80;;;8.80;;
3767;SDS011;1899;49.966;7.106;2022-07-12T08:10:43;9.50;;;8.63;;
3767;SDS011;1899;49.966;7.106;2022-07-12T08:13:08;33.47;;;14.57;;
3767;SDS011;1899;49.966;7.106;2022-07-12T08:15:33;12.17;;;7.50;;
3767;SDS011;1899;49.966;7.106;2022-07-12T08:17:59;7.47;;;6.77;;
3767;SDS011;1899;49.966;7.106;2022-07-12T08:20:24;9.07;;;8.10;;
3767;SDS011;1899;49.966;7.106;2022-07-12T08:22:49;7.70;;;6.90;;
3767;SDS011;1899;49.966;7.106;2022-07-12T08:25:15;5.80;;;5.30;;
3767;SDS011;1899;49.966;7.106;2022-07-12T08:27:40;5.20;;;4.80;;
3767;SDS011;1899;49.966;7.106;2022-07-12T08:30:06;5.10;;;4.60;;
3767;SDS011;1899;49.966;7.106;2022-07-12T08:32:31;5.37;;;4.10;;
3767;SDS011;1899;49.966;7.106;2022-07-12T08:34:57;4.70;;;4.20;;
3767;SDS011;1899;49.966;7.106;2022-07-12T08:37:22;4.40;;;4.10;;
3767;SDS011;1899;49.966;7.106;2022-07-12T08:39:47;6.40;;;4.27;;
3767;SDS011;1899;49.966;7.106;2022-07-12T08:42:14;4.10;;;3.80;;
3767;SDS011;1899;49.966;7.106;2022-07-12T08:44:39;5.33;;;4.50;;
3767;SDS011;1899;49.966;7.106;2022-07-12T08:47:07;4.40;;;4.00;;
3767;SDS011;1899;49.966;7.106;2022-07-12T08:49:32;4.10;;;3.63;;
3767;SDS011;1899;49.966;7.106;2022-07-12T08:51:57;3.70;;;3.40;;
3767;SDS011;1899;49.966;7.106;2022-07-12T08:54:22;3.97;;;3.67;;
3767;SDS011;1899;49.966;7.106;2022-07-12T08:56:48;2.73;;;2.57;;
3767;SDS011;1899;49.966;7.106;2022-07-12T08:59:14;3.47;;;3.17;;
3767;SDS011;1899;49.966;7.106;2022-07-12T09:01:44;3.47;;;3.20;;
3767;SDS011;1899;49.966;7.106;2022-07-12T09:04:10;8.97;;;3.90;;
3767;SDS011;1899;49.966;7.106;2022-07-12T09:06:35;4.60;;;3.27;;
3767;SDS011;1899;49.966;7.106;2022-07-12T09:09:00;3.13;;;2.93;;
3767;SDS011;1899;49.966;7.106;2022-07-12T09:11:25;3.00;;;2.80;;
3767;SDS011;1899;49.966;7.106;2022-07-12T09:13:52;3.43;;;3.10;;
3767;SDS011;1899;49.966;7.106;2022-07-12T09:16:19;3.00;;;2.67;;
3767;SDS011;1899;49.966;7.106;2022-07-12T09:18:44;3.60;;;3.30;;
3767;SDS011;1899;49.966;7.106;2022-07-12T09:21:12;2.87;;;2.67;;
3767;SDS011;1899;49.966;7.106;2022-07-12T09:23:50;2.20;;;1.80;;
3767;SDS011;1899;49.966;7.106;2022-07-12T09:26:16;2.10;;;2.00;;
3767;SDS011;1899;49.966;7.106;2022-07-12T09:28:41;2.00;;;1.90;;
3767;SDS011;1899;49.966;7.106;2022-07-12T09:31:06;2.60;;;2.40;;
3767;SDS011;1899;49.966;7.106;2022-07-12T09:33:31;2.30;;;2.20;;
3767;SDS011;1899;49.966;7.106;2022-07-12T09:36:15;2.33;;;2.13;;
3767;SDS011;1899;49.966;7.106;2022-07-12T09:38:49;2.80;;;2.60;;
3767;SDS011;1899;49.966;7.106;2022-07-12T09:41:16;2.60;;;2.40;;
3767;SDS011;1899;49.966;7.106;2022-07-12T09:43:42;2.30;;;2.10;;
3767;SDS011;1899;49.966;7.106;2022-07-12T09:46:07;2.57;;;2.37;;
3767;SDS011;1899;49.966;7.106;2022-07-12T09:48:33;2.23;;;2.10;;
3767;SDS011;1899;49.966;7.106;2022-07-12T09:50:58;2.57;;;2.37;;
3767;SDS011;1899;49.966;7.106;2022-07-12T09:53:29;2.33;;;2.20;;
3767;SDS011;1899;49.966;7.106;2022-07-12T09:55:56;2.60;;;2.40;;
3767;SDS011;1899;49.966;7.106;2022-07-12T09:58:23;3.23;;;2.60;;
3767;SDS011;1899;49.966;7.106;2022-07-12T10:00:53;2.93;;;2.23;;
3767;SDS011;1899;49.966;7.106;2022-07-12T10:03:21;2.23;;;2.03;;
3767;SDS011;1899;49.966;7.106;2022-07-12T10:05:50;3.27;;;1.93;;
3767;SDS011;1899;49.966;7.106;2022-07-12T10:08:17;2.10;;;2.00;;
3767;SDS011;1899;49.966;7.106;2022-07-12T10:10:42;2.90;;;2.17;;
3767;SDS011;1899;49.966;7.106;2022-07-12T10:13:08;2.77;;;2.57;;
3767;SDS011;1899;49.966;7.106;2022-07-12T10:15:33;2.37;;;2.17;;
3767;SDS011;1899;49.966;7.106;2022-07-12T10:17:59;2.07;;;1.97;;
3767;SDS011;1899;49.966;7.106;2022-07-12T10:20:26;1.73;;;1.63;;
3767;SDS011;1899;49.966;7.106;2022-07-12T10:22:54;2.13;;;1.83;;
3767;SDS011;1899;49.966;7.106;2022-07-12T10:27:51;2.13;;;1.93;;
3767;SDS011;1899;49.966;7.106;2022-07-12T10:30:17;1.77;;;1.67;;
3767;SDS011;1899;49.966;7.106;2022-07-12T10:32:43;2.27;;;2.00;;
3767;SDS011;1899;49.966;7.106;2022-07-12T10:35:13;2.77;;;2.10;;
3767;SDS011;1899;49.966;7.106;2022-07-12T10:37:38;2.77;;;2.57;;
3767;SDS011;1899;49.966;7.106;2022-07-12T10:40:11;2.90;;;2.70;;
3767;SDS011;1899;49.966;7.106;2022-07-12T10:42:36;2.43;;;2.30;;
3767;SDS011;1899;49.966;7.106;2022-07-12T10:45:14;1.97;;;1.87;;
3767;SDS011;1899;49.966;7.106;2022-07-12T10:58:36;2.10;;;2.00;;
3767;SDS011;1899;49.966;7.106;2022-07-12T11:01:02;2.50;;;2.20;;
3767;SDS011;1899;49.966;7.106;2022-07-12T11:03:30;3.60;;;1.87;;
3767;SDS011;1899;49.966;7.106;2022-07-12T11:06:01;2.17;;;1.97;;
3767;SDS011;1899;49.966;7.106;2022-07-12T11:08:28;3.13;;;1.90;;
3767;SDS011;1899;49.966;7.106;2022-07-12T11:10:56;3.57;;;2.20;;
3767;SDS011;1899;49.966;7.106;2022-07-12T11:13:23;2.03;;;1.93;;
3767;SDS011;1899;49.966;7.106;2022-07-12T11:15:58;1.90;;;1.80;;
3767;SDS011;1899;49.966;7.106;2022-07-12T11:18:27;2.40;;;1.77;;
3767;SDS011;1899;49.966;7.106;2022-07-12T11:20:54;3.30;;;1.90;;
3767;SDS011;1899;49.966;7.106;2022-07-12T11:23:20;3.70;;;1.97;;
3767;SDS011;1899;49.966;7.106;2022-07-12T11:25:46;1.57;;;1.47;;
3767;SDS011;1899;49.966;7.106;2022-07-12T11:28:11;1.70;;;1.60;;
3767;SDS011;1899;49.966;7.106;2022-07-12T11:30:37;2.63;;;2.43;;
3767;SDS011;1899;49.966;7.106;2022-07-12T11:33:02;24.07;;;3.77;;
3767;SDS011;1899;49.966;7.106;2022-07-12T11:35:27;14.40;;;2.90;;
3767;SDS011;1899;49.966;7.106;2022-07-12T11:37:54;5.33;;;2.13;;
3767;SDS011;1899;49.966;7.106;2022-07-12T11:40:27;2.13;;;1.70;;
3767;SDS011;1899;49.966;7.106;2022-07-12T11:42:53;2.50;;;1.67;;
3767;SDS011;1899;49.966;7.106;2022-07-12T11:45:18;1.60;;;1.50;;
3767;SDS011;1899;49.966;7.106;2022-07-12T11:47:43;2.70;;;1.70;;
3767;SDS011;1899;49.966;7.106;2022-07-12T11:50:09;1.80;;;1.70;;
3767;SDS011;1899;49.966;7.106;2022-07-12T11:52:34;26.20;;;3.77;;
3767;SDS011;1899;49.966;7.106;2022-07-12T11:55:00;3.00;;;1.93;;
3767;SDS011;1899;49.966;7.106;2022-07-12T11:57:31;1.60;;;1.50;;
3767;SDS011;1899;49.966;7.106;2022-07-12T11:59:57;1.33;;;1.23;;
3767;SDS011;1899;49.966;7.106;2022-07-12T12:02:22;1.87;;;1.53;;
3767;SDS011;1899;49.966;7.106;2022-07-12T12:07:13;3.37;;;1.50;;
3767;SDS011;1899;49.966;7.106;2022-07-12T12:10:03;1.37;;;1.27;;
3767;SDS011;1899;49.966;7.106;2022-07-12T12:15:05;1.93;;;1.70;;
3767;SDS011;1899;49.966;7.106;2022-07-12T12:17:31;3.63;;;1.43;;
3767;SDS011;1899;49.966;7.106;2022-07-12T12:19:57;4.13;;;1.27;;
3767;SDS011;1899;49.966;7.106;2022-07-12T12:22:56;1.60;;;1.50;;
3767;SDS011;1899;49.966;7.106;2022-07-12T12:25:14;1.67;;;1.57;;
3767;SDS011;1899;49.966;7.106;2022-07-12T12:27:43;1.63;;;1.53;;
3767;SDS011;1899;49.966;7.106;2022-07-12T12:30:09;1.80;;;1.70;;
3767;SDS011;1899;49.966;7.106;2022-07-12T12:32:48;4.40;;;1.60;;
3767;SDS011;1899;49.966;7.106;2022-07-12T12:35:14;1.73;;;1.63;;
3767;SDS011;1899;49.966;7.106;2022-07-12T12:37:40;1.93;;;1.77;;
3767;SDS011;1899;49.966;7.106;2022-07-12T12:40:06;1.60;;;1.50;;
3767;SDS011;1899;49.966;7.106;2022-07-12T12:42:32;1.80;;;1.70;;
3767;SDS011;1899;49.966;7.106;2022-07-12T12:44:57;1.40;;;1.30;;
3767;SDS011;1899;49.966;7.106;2022-07-12T12:47:22;1.90;;;1.37;;
3767;SDS011;1899;49.966;7.106;2022-07-12T12:49:56;1.43;;;1.33;;
3767;SDS011;1899;49.966;7.106;2022-07-12T12:52:22;1.60;;;1.50;;
3767;SDS011;1899;49.966;7.106;2022-07-12T12:54:48;1.77;;;1.63;;
3767;SDS011;1899;49.966;7.106;2022-07-12T12:57:13;1.50;;;1.13;;
3767;SDS011;1899;49.966;7.106;2022-07-12T12:59:39;1.97;;;1.33;;
3767;SDS011;1899;49.966;7.106;2022-07-12T13:02:05;3.10;;;1.52;;
3767;SDS011;1899;49.966;7.106;2022-07-12T13:04:30;1.52;;;1.40;;
3767;SDS011;1899;49.966;7.106;2022-07-12T13:06:56;1.80;;;1.70;;
3767;SDS011;1899;49.966;7.106;2022-07-12T13:09:21;1.20;;;1.10;;
3767;SDS011;1899;49.966;7.106;2022-07-12T13:11:47;1.48;;;1.38;;
3767;SDS011;1899;49.966;7.106;2022-07-12T13:14:12;1.58;;;1.20;;
3767;SDS011;1899;49.966;7.106;2022-07-12T13:16:38;1.20;;;1.10;;
3767;SDS011;1899;49.966;7.106;2022-07-12T13:19:04;2.70;;;1.45;;
3767;SDS011;1899;49.966;7.106;2022-07-12T13:21:30;1.73;;;1.63;;
3767;SDS011;1899;49.966;7.106;2022-07-12T13:23:55;1.20;;;1.10;;
3767;SDS011;1899;49.966;7.106;2022-07-12T13:26:20;2.60;;;1.57;;
3767;SDS011;1899;49.966;7.106;2022-07-12T13:28:46;1.77;;;1.30;;
3767;SDS011;1899;49.966;7.106;2022-07-12T13:31:11;3.97;;;1.63;;
3767;SDS011;1899;49.966;7.106;2022-07-12T13:33:36;1.93;;;1.60;;
3767;SDS011;1899;49.966;7.106;2022-07-12T13:36:01;1.93;;;1.50;;
3767;SDS011;1899;49.966;7.106;2022-07-12T13:38:27;1.70;;;1.30;;
3767;SDS011;1899;49.966;7.106;2022-07-12T13:40:52;1.40;;;1.30;;
3767;SDS011;1899;49.966;7.106;2022-07-12T13:43:17;2.13;;;1.07;;
3767;SDS011;1899;49.966;7.106;2022-07-12T13:45:42;10.43;;;1.50;;
3767;SDS011;1899;49.966;7.106;2022-07-12T13:48:09;1.40;;;1.30;;
3767;SDS011;1899;49.966;7.106;2022-07-12T13:50:34;1.27;;;1.17;;
3767;SDS011;1899;49.966;7.106;2022-07-12T13:53:00;7.83;;;2.13;;
3767;SDS011;1899;49.966;7.106;2022-07-12T13:55:25;13.53;;;2.57;;
3767;SDS011;1899;49.966;7.106;2022-07-12T13:57:51;1.20;;;1.10;;
3767;SDS011;1899;49.966;7.106;2022-07-12T14:00:16;1.90;;;1.30;;
3767;SDS011;1899;49.966;7.106;2022-07-12T14:02:43;2.47;;;1.27;;
3767;SDS011;1899;49.966;7.106;2022-07-12T14:05:09;1.40;;;1.30;;
3767;SDS011;1899;49.966;7.106;2022-07-12T14:07:35;1.30;;;1.20;;
3767;SDS011;1899;49.966;7.106;2022-07-12T14:10:01;1.40;;;1.30;;
3767;SDS011;1899;49.966;7.106;2022-07-12T14:12:27;1.30;;;1.17;;
3767;SDS011;1899;49.966;7.106;2022-07-12T14:14:53;1.50;;;1.40;;
3767;SDS011;1899;49.966;7.106;2022-07-12T14:17:40;1.60;;;1.20;;
3767;SDS011;1899;49.966;7.106;2022-07-12T14:20:05;1.20;;;1.10;;
3767;SDS011;1899;49.966;7.106;2022-07-12T14:22:31;1.20;;;1.10;;
3767;SDS011;1899;49.966;7.106;2022-07-12T14:24:57;1.17;;;1.07;;
3767;SDS011;1899;49.966;7.106;2022-07-12T14:27:22;1.23;;;1.13;;
3767;SDS011;1899;49.966;7.106;2022-07-12T14:29:47;1.30;;;1.20;;
3767;SDS011;1899;49.966;7.106;2022-07-12T14:32:13;1.40;;;1.30;;
3767;SDS011;1899;49.966;7.106;2022-07-12T14:34:38;3.73;;;1.60;;
3767;SDS011;1899;49.966;7.106;2022-07-12T14:37:03;3.83;;;1.30;;
3767;SDS011;1899;49.966;7.106;2022-07-12T14:39:29;1.20;;;1.10;;
3767;SDS011;1899;49.966;7.106;2022-07-12T14:41:54;2.10;;;1.00;;
3767;SDS011;1899;49.966;7.106;2022-07-12T14:44:20;1.40;;;1.30;;
3767;SDS011;1899;49.966;7.106;2022-07-12T14:46:46;1.10;;;1.00;;
3767;SDS011;1899;49.966;7.106;2022-07-12T14:49:11;1.10;;;1.00;;
3767;SDS011;1899;49.966;7.106;2022-07-12T14:51:36;1.20;;;1.10;;
3767;SDS011;1899;49.966;7.106;2022-07-12T14:54:02;1.30;;;1.20;;
3767;SDS011;1899;49.966;7.106;2022-07-12T14:56:27;3.20;;;1.10;;
3767;SDS011;1899;49.966;7.106;2022-07-12T14:58:52;1.37;;;1.00;;
3767;SDS011;1899;49.966;7.106;2022-07-12T15:01:18;2.00;;;0.93;;
3767;SDS011;1899;49.966;7.106;2022-07-12T15:03:43;2.07;;;1.17;;
3767;SDS011;1899;49.966;7.106;2022-07-12T15:06:08;2.10;;;1.20;;
3767;SDS011;1899;49.966;7.106;2022-07-12T15:08:34;1.00;;;0.90;;
3767;SDS011;1899;49.966;7.106;2022-07-12T15:10:59;1.80;;;1.70;;
3767;SDS011;1899;49.966;7.106;2022-07-12T15:13:24;1.53;;;1.20;;
3767;SDS011;1899;49.966;7.106;2022-07-12T15:15:50;9.80;;;2.40;;
3767;SDS011;1899;49.966;7.106;2022-07-12T15:18:15;3.30;;;1.00;;
3767;SDS011;1899;49.966;7.106;2022-07-12T15:20:40;1.07;;;0.80;;
3767;SDS011;1899;49.966;7.106;2022-07-12T15:23:05;1.57;;;0.97;;
3767;SDS011;1899;49.966;7.106;2022-07-12T15:25:31;1.30;;;1.20;;
3767;SDS011;1899;49.966;7.106;2022-07-12T15:27:57;1.10;;;0.97;;
3767;SDS011;1899;49.966;7.106;2022-07-12T15:30:22;1.00;;;0.90;;
3767;SDS011;1899;49.966;7.106;2022-07-12T15:32:47;1.30;;;1.20;;
3767;SDS011;1899;49.966;7.106;2022-07-12T15:35:13;1.00;;;0.90;;
3767;SDS011;1899;49.966;7.106;2022-07-12T15:37:39;1.10;;;1.00;;
3767;SDS011;1899;49.966;7.106;2022-07-12T15:40:04;1.00;;;0.90;;
3767;SDS011;1899;49.966;7.106;2022-07-12T15:42:30;1.67;;;0.93;;
3767;SDS011;1899;49.966;7.106;2022-07-12T15:44:55;1.03;;;0.93;;
3767;SDS011;1899;49.966;7.106;2022-07-12T15:47:21;1.20;;;0.80;;
3767;SDS011;1899;49.966;7.106;2022-07-12T15:49:46;1.10;;;1.00;;
3767;SDS011;1899;49.966;7.106;2022-07-12T15:52:11;0.90;;;0.90;;
3767;SDS011;1899;49.966;7.106;2022-07-12T15:54:55;1.00;;;0.90;;
3767;SDS011;1899;49.966;7.106;2022-07-12T15:57:21;1.47;;;1.00;;
3767;SDS011;1899;49.966;7.106;2022-07-12T15:59:46;2.50;;;0.90;;
3767;SDS011;1899;49.966;7.106;2022-07-12T16:02:11;2.90;;;1.30;;
3767;SDS011;1899;49.966;7.106;2022-07-12T16:04:37;1.13;;;1.03;;
3767;SDS011;1899;49.966;7.106;2022-07-12T16:07:02;0.93;;;0.90;;
3767;SDS011;1899;49.966;7.106;2022-07-12T16:09:28;1.27;;;1.17;;
3767;SDS011;1899;49.966;7.106;2022-07-12T16:11:53;1.40;;;1.30;;
3767;SDS011;1899;49.966;7.106;2022-07-12T16:14:18;1.90;;;1.70;;
3767;SDS011;1899;49.966;7.106;2022-07-12T16:16:44;1.33;;;1.23;;
3767;SDS011;1899;49.966;7.106;2022-07-12T16:19:09;1.10;;;1.00;;
3767;SDS011;1899;49.966;7.106;2022-07-12T16:21:34;1.10;;;1.00;;
3767;SDS011;1899;49.966;7.106;2022-07-12T16:24:00;1.10;;;1.00;;
3767;SDS011;1899;49.966;7.106;2022-07-12T16:26:25;1.10;;;1.00;;
3767;SDS011;1899;49.966;7.106;2022-07-12T16:28:50;1.10;;;1.00;;
3767;SDS011;1899;49.966;7.106;2022-07-12T16:31:15;1.30;;;1.20;;
3767;SDS011;1899;49.966;7.106;2022-07-12T16:33:41;1.50;;;1.10;;
3767;SDS011;1899;49.966;7.106;2022-07-12T16:36:07;1.10;;;1.00;;
3767;SDS011;1899;49.966;7.106;2022-07-12T16:38:32;1.00;;;0.90;;
3767;SDS011;1899;49.966;7.106;2022-07-12T16:40:58;1.00;;;0.90;;
3767;SDS011;1899;49.966;7.106;2022-07-12T16:43:23;1.00;;;0.90;;
3767;SDS011;1899;49.966;7.106;2022-07-12T16:45:48;1.00;;;0.90;;
3767;SDS011;1899;49.966;7.106;2022-07-12T16:48:13;1.03;;;0.90;;
3767;SDS011;1899;49.966;7.106;2022-07-12T16:50:39;1.20;;;0.80;;
3767;SDS011;1899;49.966;7.106;2022-07-12T16:53:05;1.10;;;1.00;;
3767;SDS011;1899;49.966;7.106;2022-07-12T16:55:31;1.03;;;0.93;;
3767;SDS011;1899;49.966;7.106;2022-07-12T16:57:56;1.53;;;1.00;;
3767;SDS011;1899;49.966;7.106;2022-07-12T17:00:21;0.90;;;0.80;;
3767;SDS011;1899;49.966;7.106;2022-07-12T17:02:47;0.90;;;0.80;;
3767;SDS011;1899;49.966;7.106;2022-07-12T17:05:12;1.10;;;1.00;;
3767;SDS011;1899;49.966;7.106;2022-07-12T17:07:37;2.37;;;0.77;;
3767;SDS011;1899;49.966;7.106;2022-07-12T17:10:06;0.80;;;0.80;;
3767;SDS011;1899;49.966;7.106;2022-07-12T17:12:32;3.27;;;1.00;;
3767;SDS011;1899;49.966;7.106;2022-07-12T17:14:57;1.20;;;0.90;;
3767;SDS011;1899;49.966;7.106;2022-07-12T17:17:23;1.60;;;1.10;;
3767;SDS011;1899;49.966;7.106;2022-07-12T17:19:49;0.83;;;0.80;;
3767;SDS011;1899;49.966;7.106;2022-07-12T17:22:14;1.10;;;1.00;;
3767;SDS011;1899;49.966;7.106;2022-07-12T17:24:39;1.77;;;0.83;;
3767;SDS011;1899;49.966;7.106;2022-07-12T17:27:04;1.30;;;0.80;;
3767;SDS011;1899;49.966;7.106;2022-07-12T17:29:30;1.00;;;0.90;;
3767;SDS011;1899;49.966;7.106;2022-07-12T17:31:55;1.20;;;1.10;;
3767;SDS011;1899;49.966;7.106;2022-07-12T17:34:21;1.00;;;0.90;;
3767;SDS011;1899;49.966;7.106;2022-07-12T17:36:46;1.53;;;0.90;;
3767;SDS011;1899;49.966;7.106;2022-07-12T17:39:12;1.63;;;0.80;;
3767;SDS011;1899;49.966;7.106;2022-07-12T17:41:37;1.00;;;0.90;;
3767;SDS011;1899;49.966;7.106;2022-07-12T17:44:03;3.53;;;0.97;;
3767;SDS011;1899;49.966;7.106;2022-07-12T17:46:28;1.60;;;0.90;;
3767;SDS011;1899;49.966;7.106;2022-07-12T17:48:55;1.83;;;0.80;;
3767;SDS011;1899;49.966;7.106;2022-07-12T17:51:20;4.77;;;2.20;;
3767;SDS011;1899;49.966;7.106;2022-07-12T17:53:45;18.07;;;16.60;;
3767;SDS011;1899;49.966;7.106;2022-07-12T17:56:11;5.60;;;5.20;;
3767;SDS011;1899;49.966;7.106;2022-07-12T17:58:36;1.60;;;1.50;;
3767;SDS011;1899;49.966;7.106;2022-07-12T18:01:02;1.40;;;1.30;;
3767;SDS011;1899;49.966;7.106;2022-07-12T18:03:27;1.07;;;0.97;;
3767;SDS011;1899;49.966;7.106;2022-07-12T18:05:53;1.03;;;0.93;;
3767;SDS011;1899;49.966;7.106;2022-07-12T18:08:18;1.23;;;1.03;;
3767;SDS011;1899;49.966;7.106;2022-07-12T18:10:43;1.27;;;1.10;;
3767;SDS011;1899;49.966;7.106;2022-07-12T18:13:08;1.10;;;1.00;;
3767;SDS011;1899;49.966;7.106;2022-07-12T18:15:52;1.67;;;1.03;;
3767;SDS011;1899;49.966;7.106;2022-07-12T18:18:17;1.13;;;1.03;;
3767;SDS011;1899;49.966;7.106;2022-07-12T18:20:43;9.00;;;1.67;;
3767;SDS011;1899;49.966;7.106;2022-07-12T18:23:09;3.30;;;2.20;;
3767;SDS011;1899;49.966;7.106;2022-07-12T18:25:35;2.67;;;1.30;;
3767;SDS011;1899;49.966;7.106;2022-07-12T18:28:00;1.13;;;0.93;;
3767;SDS011;1899;49.966;7.106;2022-07-12T18:30:25;2.00;;;1.20;;
3767;SDS011;1899;49.966;7.106;2022-07-12T18:32:57;2.30;;;1.03;;
3767;SDS011;1899;49.966;7.106;2022-07-12T18:35:25;2.40;;;1.33;;
3767;SDS011;1899;49.966;7.106;2022-07-12T18:37:51;3.57;;;1.33;;
3767;SDS011;1899;49.966;7.106;2022-07-12T18:40:16;2.33;;;1.17;;
3767;SDS011;1899;49.966;7.106;2022-07-12T18:42:41;4.00;;;1.50;;
3767;SDS011;1899;49.966;7.106;2022-07-12T18:45:06;1.37;;;1.27;;
3767;SDS011;1899;49.966;7.106;2022-07-12T18:47:32;3.20;;;1.27;;
3767;SDS011;1899;49.966;7.106;2022-07-12T18:49:57;1.47;;;1.13;;
3767;SDS011;1899;49.966;7.106;2022-07-12T18:52:23;1.93;;;1.13;;
3767;SDS011;1899;49.966;7.106;2022-07-12T18:54:49;2.53;;;2.33;;
3767;SDS011;1899;49.966;7.106;2022-07-12T18:57:15;2.13;;;1.93;;
3767;SDS011;1899;49.966;7.106;2022-07-12T18:59:40;2.50;;;1.53;;
3767;SDS011;1899;49.966;7.106;2022-07-12T19:02:06;2.00;;;1.80;;
3767;SDS011;1899;49.966;7.106;2022-07-12T19:04:31;2.53;;;1.50;;
3767;SDS011;1899;49.966;7.106;2022-07-12T19:06:57;1.40;;;1.30;;
3767;SDS011;1899;49.966;7.106;2022-07-12T19:09:22;2.10;;;1.00;;
3767;SDS011;1899;49.966;7.106;2022-07-12T19:11:47;1.23;;;1.10;;
3767;SDS011;1899;49.966;7.106;2022-07-12T19:14:13;2.40;;;1.10;;
3767;SDS011;1899;49.966;7.106;2022-07-12T19:16:40;2.77;;;1.10;;
3767;SDS011;1899;49.966;7.106;2022-07-12T19:19:05;1.47;;;1.10;;